Search for airport 
image banner adimage banner adimage banner ad
image banner ad

FQVL - Vilankulo / National

Located in , Mozambique

ICAO - FQVL, IATA - VNX

Data provided by Airmate  

General information

Coordinates: S22°0'60" E35°19'0"
Elevation is 46 feet MSL.
 
View others Airports in Inhambane Province

Operational data

Special qualification required
Current time UTC:
Current local time:
Weather
METAR: FQVL 180600Z 17010KT 9999 SCT020 23/17 Q1024 NOSIG
TAF: TAF FQVL 180400Z 1806/1906 20010KT 9999 FEW020 TX28/1813Z TN20/1903Z BECMG 1812/1814 14010KT BKN020 BECMG 1818/1820 22010KT FEW025
View NOTAMs / SUP AIP / TFR affecting this airport [VIEW]
Communications frequencies: [VIEW]

Runways:

RWY identifierQFULength (ft)Width (ft)SurfaceLDA (ft)
1089°246175ASP
28246175
17482398
35482398

Airport contact information

Address: Mozambique

Satellite view of FQVL